sensor_id;sensor_type;location;lat;lon;timestamp;P1;durP1;ratioP1;P2;durP2;ratioP2
72904;SDS011;61048;52.162;4.516;2023-05-10T00:01:49;9.95;;;0.85;;
72904;SDS011;61048;52.162;4.516;2023-05-10T00:04:16;2.58;;;1.40;;
72904;SDS011;61048;52.162;4.516;2023-05-10T00:06:43;1.63;;;1.50;;
72904;SDS011;61048;52.162;4.516;2023-05-10T00:09:10;3.42;;;1.33;;
72904;SDS011;61048;52.162;4.516;2023-05-10T00:11:37;3.03;;;1.42;;
72904;SDS011;61048;52.162;4.516;2023-05-10T00:14:06;2.22;;;1.30;;
72904;SDS011;61048;52.162;4.516;2023-05-10T00:16:33;2.03;;;0.90;;
72904;SDS011;61048;52.162;4.516;2023-05-10T00:19:00;2.88;;;1.50;;
72904;SDS011;61048;52.162;4.516;2023-05-10T00:21:27;3.40;;;1.13;;
72904;SDS011;61048;52.162;4.516;2023-05-10T00:23:54;4.07;;;1.75;;
72904;SDS011;61048;52.162;4.516;2023-05-10T00:26:21;15.23;;;1.50;;
72904;SDS011;61048;52.162;4.516;2023-05-10T00:28:49;3.25;;;1.48;;
72904;SDS011;61048;52.162;4.516;2023-05-10T00:31:17;3.10;;;1.42;;
72904;SDS011;61048;52.162;4.516;2023-05-10T00:33:44;2.33;;;1.70;;
72904;SDS011;61048;52.162;4.516;2023-05-10T00:36:11;2.15;;;1.45;;
72904;SDS011;61048;52.162;4.516;2023-05-10T00:38:39;2.38;;;1.45;;
72904;SDS011;61048;52.162;4.516;2023-05-10T00:41:06;2.47;;;1.50;;
72904;SDS011;61048;52.162;4.516;2023-05-10T00:43:33;2.15;;;1.67;;
72904;SDS011;61048;52.162;4.516;2023-05-10T00:46:00;3.75;;;1.52;;
72904;SDS011;61048;52.162;4.516;2023-05-10T00:48:29;2.85;;;1.52;;
72904;SDS011;61048;52.162;4.516;2023-05-10T00:50:56;2.42;;;1.52;;
72904;SDS011;61048;52.162;4.516;2023-05-10T00:53:24;2.90;;;1.92;;
72904;SDS011;61048;52.162;4.516;2023-05-10T00:55:51;3.25;;;2.05;;
72904;SDS011;61048;52.162;4.516;2023-05-10T00:58:18;4.45;;;1.85;;
72904;SDS011;61048;52.162;4.516;2023-05-10T01:00:46;2.53;;;1.70;;
72904;SDS011;61048;52.162;4.516;2023-05-10T01:03:13;4.65;;;1.95;;
72904;SDS011;61048;52.162;4.516;2023-05-10T01:05:42;2.90;;;1.90;;
72904;SDS011;61048;52.162;4.516;2023-05-10T01:08:09;2.67;;;1.13;;
72904;SDS011;61048;52.162;4.516;2023-05-10T01:10:36;4.07;;;2.67;;
72904;SDS011;61048;52.162;4.516;2023-05-10T01:13:03;2.80;;;1.85;;
72904;SDS011;61048;52.162;4.516;2023-05-10T01:15:31;2.40;;;1.00;;
72904;SDS011;61048;52.162;4.516;2023-05-10T01:17:58;2.30;;;1.42;;
72904;SDS011;61048;52.162;4.516;2023-05-10T01:20:25;2.22;;;1.50;;
72904;SDS011;61048;52.162;4.516;2023-05-10T01:23:19;3.63;;;1.83;;
72904;SDS011;61048;52.162;4.516;2023-05-10T01:28:39;2.42;;;1.70;;
72904;SDS011;61048;52.162;4.516;2023-05-10T01:31:17;2.55;;;1.75;;
72904;SDS011;61048;52.162;4.516;2023-05-10T01:33:48;3.65;;;1.65;;
72904;SDS011;61048;52.162;4.516;2023-05-10T01:36:20;2.00;;;1.42;;
72904;SDS011;61048;52.162;4.516;2023-05-10T01:38:51;3.10;;;1.75;;
72904;SDS011;61048;52.162;4.516;2023-05-10T01:41:22;2.60;;;1.27;;
72904;SDS011;61048;52.162;4.516;2023-05-10T01:43:53;2.75;;;1.60;;
72904;SDS011;61048;52.162;4.516;2023-05-10T01:46:24;3.22;;;1.83;;
72904;SDS011;61048;52.162;4.516;2023-05-10T01:48:55;3.42;;;1.83;;
72904;SDS011;61048;52.162;4.516;2023-05-10T01:51:23;2.90;;;1.73;;
72904;SDS011;61048;52.162;4.516;2023-05-10T01:53:54;2.13;;;1.10;;
72904;SDS011;61048;52.162;4.516;2023-05-10T01:56:25;2.13;;;1.40;;
72904;SDS011;61048;52.162;4.516;2023-05-10T01:58:53;3.17;;;1.02;;
72904;SDS011;61048;52.162;4.516;2023-05-10T02:01:21;2.28;;;1.45;;
72904;SDS011;61048;52.162;4.516;2023-05-10T02:03:48;3.13;;;1.27;;
72904;SDS011;61048;52.162;4.516;2023-05-10T02:06:18;1.92;;;0.90;;
72904;SDS011;61048;52.162;4.516;2023-05-10T02:08:45;2.00;;;1.40;;
72904;SDS011;61048;52.162;4.516;2023-05-10T02:11:13;2.10;;;1.35;;
72904;SDS011;61048;52.162;4.516;2023-05-10T02:13:40;2.40;;;1.42;;
72904;SDS011;61048;52.162;4.516;2023-05-10T02:16:10;2.40;;;0.80;;
72904;SDS011;61048;52.162;4.516;2023-05-10T02:18:37;2.50;;;1.33;;
72904;SDS011;61048;52.162;4.516;2023-05-10T02:21:07;2.08;;;1.00;;
72904;SDS011;61048;52.162;4.516;2023-05-10T02:23:36;2.25;;;1.70;;
72904;SDS011;61048;52.162;4.516;2023-05-10T02:26:04;2.33;;;1.45;;
72904;SDS011;61048;52.162;4.516;2023-05-10T02:28:32;3.03;;;1.95;;
72904;SDS011;61048;52.162;4.516;2023-05-10T02:31:00;2.67;;;1.70;;
72904;SDS011;61048;52.162;4.516;2023-05-10T02:33:27;2.80;;;1.83;;
72904;SDS011;61048;52.162;4.516;2023-05-10T02:35:55;2.78;;;1.60;;
72904;SDS011;61048;52.162;4.516;2023-05-10T02:38:23;3.33;;;1.63;;
72904;SDS011;61048;52.162;4.516;2023-05-10T02:40:52;2.33;;;1.95;;
72904;SDS011;61048;52.162;4.516;2023-05-10T02:43:20;2.70;;;1.40;;
72904;SDS011;61048;52.162;4.516;2023-05-10T02:45:49;2.83;;;1.50;;
72904;SDS011;61048;52.162;4.516;2023-05-10T02:48:16;3.85;;;1.90;;
72904;SDS011;61048;52.162;4.516;2023-05-10T02:50:44;3.13;;;2.03;;
72904;SDS011;61048;52.162;4.516;2023-05-10T02:53:22;2.92;;;1.73;;
72904;SDS011;61048;52.162;4.516;2023-05-10T02:55:50;2.60;;;1.63;;
72904;SDS011;61048;52.162;4.516;2023-05-10T02:58:19;2.75;;;1.50;;
72904;SDS011;61048;52.162;4.516;2023-05-10T03:00:47;3.03;;;1.98;;
72904;SDS011;61048;52.162;4.516;2023-05-10T03:03:14;3.22;;;1.98;;
72904;SDS011;61048;52.162;4.516;2023-05-10T03:05:41;3.47;;;1.75;;
72904;SDS011;61048;52.162;4.516;2023-05-10T03:08:08;2.95;;;1.90;;
72904;SDS011;61048;52.162;4.516;2023-05-10T03:10:38;2.60;;;1.40;;
72904;SDS011;61048;52.162;4.516;2023-05-10T03:13:07;3.30;;;1.80;;
72904;SDS011;61048;52.162;4.516;2023-05-10T03:15:40;4.03;;;1.80;;
72904;SDS011;61048;52.162;4.516;2023-05-10T03:18:09;3.80;;;2.38;;
72904;SDS011;61048;52.162;4.516;2023-05-10T03:20:38;3.13;;;2.25;;
72904;SDS011;61048;52.162;4.516;2023-05-10T03:23:11;4.85;;;2.03;;
72904;SDS011;61048;52.162;4.516;2023-05-10T03:25:39;3.35;;;1.77;;
72904;SDS011;61048;52.162;4.516;2023-05-10T03:28:08;4.18;;;2.10;;
72904;SDS011;61048;52.162;4.516;2023-05-10T03:30:36;2.75;;;1.90;;
72904;SDS011;61048;52.162;4.516;2023-05-10T03:33:05;2.80;;;2.05;;
72904;SDS011;61048;52.162;4.516;2023-05-10T03:35:32;3.10;;;2.38;;
72904;SDS011;61048;52.162;4.516;2023-05-10T03:37:59;3.03;;;2.25;;
72904;SDS011;61048;52.162;4.516;2023-05-10T03:40:27;3.33;;;1.80;;
72904;SDS011;61048;52.162;4.516;2023-05-10T03:42:56;3.78;;;2.05;;
72904;SDS011;61048;52.162;4.516;2023-05-10T03:45:23;3.47;;;2.33;;
72904;SDS011;61048;52.162;4.516;2023-05-10T03:47:50;3.15;;;2.35;;
72904;SDS011;61048;52.162;4.516;2023-05-10T03:50:19;5.55;;;2.40;;
72904;SDS011;61048;52.162;4.516;2023-05-10T03:52:46;2.78;;;1.95;;
72904;SDS011;61048;52.162;4.516;2023-05-10T03:55:13;3.00;;;1.75;;
72904;SDS011;61048;52.162;4.516;2023-05-10T03:57:41;5.18;;;2.17;;
72904;SDS011;61048;52.162;4.516;2023-05-10T04:00:08;4.32;;;2.08;;
72904;SDS011;61048;52.162;4.516;2023-05-10T04:02:36;3.55;;;2.15;;
72904;SDS011;61048;52.162;4.516;2023-05-10T04:05:03;4.28;;;1.98;;
72904;SDS011;61048;52.162;4.516;2023-05-10T04:07:32;4.70;;;2.40;;
72904;SDS011;61048;52.162;4.516;2023-05-10T04:09:59;3.67;;;2.05;;
72904;SDS011;61048;52.162;4.516;2023-05-10T04:12:27;3.30;;;1.77;;
72904;SDS011;61048;52.162;4.516;2023-05-10T04:14:54;3.92;;;2.15;;
72904;SDS011;61048;52.162;4.516;2023-05-10T04:17:21;3.17;;;1.95;;
72904;SDS011;61048;52.162;4.516;2023-05-10T04:19:48;4.05;;;1.45;;
72904;SDS011;61048;52.162;4.516;2023-05-10T04:22:18;2.92;;;2.08;;
72904;SDS011;61048;52.162;4.516;2023-05-10T04:24:46;4.25;;;2.45;;
72904;SDS011;61048;52.162;4.516;2023-05-10T04:27:13;5.38;;;2.05;;
72904;SDS011;61048;52.162;4.516;2023-05-10T04:29:40;2.92;;;2.42;;
72904;SDS011;61048;52.162;4.516;2023-05-10T04:32:07;3.03;;;1.83;;
72904;SDS011;61048;52.162;4.516;2023-05-10T04:34:35;3.67;;;1.92;;
72904;SDS011;61048;52.162;4.516;2023-05-10T04:37:02;2.85;;;2.38;;
72904;SDS011;61048;52.162;4.516;2023-05-10T04:39:29;2.75;;;1.60;;
72904;SDS011;61048;52.162;4.516;2023-05-10T04:41:58;3.17;;;2.05;;
72904;SDS011;61048;52.162;4.516;2023-05-10T04:44:25;2.47;;;1.73;;
72904;SDS011;61048;52.162;4.516;2023-05-10T04:46:52;3.15;;;1.40;;
72904;SDS011;61048;52.162;4.516;2023-05-10T04:49:20;5.03;;;2.28;;
72904;SDS011;61048;52.162;4.516;2023-05-10T04:51:47;3.80;;;2.22;;
72904;SDS011;61048;52.162;4.516;2023-05-10T04:54:14;2.70;;;1.20;;
72904;SDS011;61048;52.162;4.516;2023-05-10T04:56:41;4.25;;;2.20;;
72904;SDS011;61048;52.162;4.516;2023-05-10T04:59:10;5.85;;;2.17;;
72904;SDS011;61048;52.162;4.516;2023-05-10T05:01:37;7.15;;;2.72;;
72904;SDS011;61048;52.162;4.516;2023-05-10T05:04:04;19.60;;;4.50;;
72904;SDS011;61048;52.162;4.516;2023-05-10T05:06:31;23.52;;;6.28;;
72904;SDS011;61048;52.162;4.516;2023-05-10T05:08:59;24.98;;;5.30;;
72904;SDS011;61048;52.162;4.516;2023-05-10T05:11:26;12.57;;;4.45;;
72904;SDS011;61048;52.162;4.516;2023-05-10T05:13:53;21.42;;;5.00;;
72904;SDS011;61048;52.162;4.516;2023-05-10T05:16:21;20.02;;;4.10;;
72904;SDS011;61048;52.162;4.516;2023-05-10T05:18:49;15.25;;;4.28;;
72904;SDS011;61048;52.162;4.516;2023-05-10T05:21:16;10.98;;;3.78;;
72904;SDS011;61048;52.162;4.516;2023-05-10T05:23:43;13.45;;;4.28;;
72904;SDS011;61048;52.162;4.516;2023-05-10T05:26:11;10.00;;;4.03;;
72904;SDS011;61048;52.162;4.516;2023-05-10T05:28:38;10.32;;;3.60;;
72904;SDS011;61048;52.162;4.516;2023-05-10T05:31:05;12.75;;;3.45;;
72904;SDS011;61048;52.162;4.516;2023-05-10T05:33:34;11.23;;;3.58;;
72904;SDS011;61048;52.162;4.516;2023-05-10T05:36:01;12.98;;;3.70;;
72904;SDS011;61048;52.162;4.516;2023-05-10T05:38:28;11.27;;;3.28;;
72904;SDS011;61048;52.162;4.516;2023-05-10T05:40:56;10.77;;;3.85;;
72904;SDS011;61048;52.162;4.516;2023-05-10T05:43:23;9.10;;;2.95;;
72904;SDS011;61048;52.162;4.516;2023-05-10T05:45:51;13.25;;;3.30;;
72904;SDS011;61048;52.162;4.516;2023-05-10T05:48:18;10.38;;;3.28;;
72904;SDS011;61048;52.162;4.516;2023-05-10T05:50:47;8.10;;;3.72;;
72904;SDS011;61048;52.162;4.516;2023-05-10T05:53:14;9.95;;;3.17;;
72904;SDS011;61048;52.162;4.516;2023-05-10T05:55:50;7.47;;;2.72;;
72904;SDS011;61048;52.162;4.516;2023-05-10T05:58:17;10.85;;;2.92;;
72904;SDS011;61048;52.162;4.516;2023-05-10T06:00:44;6.15;;;2.45;;
72904;SDS011;61048;52.162;4.516;2023-05-10T06:03:11;5.78;;;2.75;;
72904;SDS011;61048;52.162;4.516;2023-05-10T06:05:38;11.13;;;2.45;;
72904;SDS011;61048;52.162;4.516;2023-05-10T06:08:07;6.03;;;2.70;;
72904;SDS011;61048;52.162;4.516;2023-05-10T06:10:34;8.18;;;2.95;;
72904;SDS011;61048;52.162;4.516;2023-05-10T06:13:02;7.18;;;2.78;;
72904;SDS011;61048;52.162;4.516;2023-05-10T06:15:29;7.30;;;2.45;;
72904;SDS011;61048;52.162;4.516;2023-05-10T06:17:57;6.38;;;2.60;;
72904;SDS011;61048;52.162;4.516;2023-05-10T06:20:24;7.78;;;2.92;;
72904;SDS011;61048;52.162;4.516;2023-05-10T06:22:51;8.82;;;2.65;;
72904;SDS011;61048;52.162;4.516;2023-05-10T06:25:20;9.60;;;2.50;;
72904;SDS011;61048;52.162;4.516;2023-05-10T06:27:47;8.13;;;2.78;;
72904;SDS011;61048;52.162;4.516;2023-05-10T06:30:14;8.30;;;2.10;;
72904;SDS011;61048;52.162;4.516;2023-05-10T06:32:42;6.75;;;2.28;;
72904;SDS011;61048;52.162;4.516;2023-05-10T06:35:10;6.25;;;3.15;;
72904;SDS011;61048;52.162;4.516;2023-05-10T06:37:37;4.55;;;2.00;;
72904;SDS011;61048;52.162;4.516;2023-05-10T06:40:05;7.53;;;2.60;;
72904;SDS011;61048;52.162;4.516;2023-05-10T06:42:34;5.13;;;2.15;;
72904;SDS011;61048;52.162;4.516;2023-05-10T06:45:01;5.10;;;1.90;;
72904;SDS011;61048;52.162;4.516;2023-05-10T06:47:28;6.22;;;2.40;;
72904;SDS011;61048;52.162;4.516;2023-05-10T06:49:55;6.60;;;2.67;;
72904;SDS011;61048;52.162;4.516;2023-05-10T06:52:22;7.28;;;2.03;;
72904;SDS011;61048;52.162;4.516;2023-05-10T06:54:49;6.13;;;2.17;;
72904;SDS011;61048;52.162;4.516;2023-05-10T06:57:16;3.90;;;1.70;;
72904;SDS011;61048;52.162;4.516;2023-05-10T06:59:45;4.82;;;1.52;;
72904;SDS011;61048;52.162;4.516;2023-05-10T07:02:12;7.00;;;1.65;;
72904;SDS011;61048;52.162;4.516;2023-05-10T07:04:41;4.75;;;1.75;;
72904;SDS011;61048;52.162;4.516;2023-05-10T07:07:08;3.83;;;1.33;;
72904;SDS011;61048;52.162;4.516;2023-05-10T07:09:36;4.55;;;1.45;;
72904;SDS011;61048;52.162;4.516;2023-05-10T07:12:03;3.90;;;2.10;;
72904;SDS011;61048;52.162;4.516;2023-05-10T07:14:30;2.90;;;1.60;;
72904;SDS011;61048;52.162;4.516;2023-05-10T07:16:59;4.85;;;1.77;;
72904;SDS011;61048;52.162;4.516;2023-05-10T07:19:26;2.30;;;1.25;;
72904;SDS011;61048;52.162;4.516;2023-05-10T07:21:54;4.80;;;1.50;;
72904;SDS011;61048;52.162;4.516;2023-05-10T07:24:21;3.60;;;1.65;;
72904;SDS011;61048;52.162;4.516;2023-05-10T07:26:49;2.58;;;1.50;;
72904;SDS011;61048;52.162;4.516;2023-05-10T07:29:16;3.58;;;1.70;;
72904;SDS011;61048;52.162;4.516;2023-05-10T07:31:43;2.38;;;1.50;;
72904;SDS011;61048;52.162;4.516;2023-05-10T07:34:12;3.20;;;1.33;;
72904;SDS011;61048;52.162;4.516;2023-05-10T07:36:39;4.28;;;1.88;;
72904;SDS011;61048;52.162;4.516;2023-05-10T07:39:06;4.10;;;1.42;;
72904;SDS011;61048;52.162;4.516;2023-05-10T07:41:33;2.80;;;1.00;;
72904;SDS011;61048;52.162;4.516;2023-05-10T07:44:02;3.20;;;2.00;;
72904;SDS011;61048;52.162;4.516;2023-05-10T07:46:29;2.80;;;1.40;;
72904;SDS011;61048;52.162;4.516;2023-05-10T07:48:57;2.58;;;1.00;;
72904;SDS011;61048;52.162;4.516;2023-05-10T07:51:25;2.88;;;1.38;;
72904;SDS011;61048;52.162;4.516;2023-05-10T07:53:53;4.03;;;1.33;;
72904;SDS011;61048;52.162;4.516;2023-05-10T07:56:20;2.13;;;1.00;;
72904;SDS011;61048;52.162;4.516;2023-05-10T07:58:48;2.42;;;1.15;;
72904;SDS011;61048;52.162;4.516;2023-05-10T08:01:15;2.72;;;1.58;;
72904;SDS011;61048;52.162;4.516;2023-05-10T08:03:42;2.47;;;1.48;;
72904;SDS011;61048;52.162;4.516;2023-05-10T08:06:09;2.47;;;1.30;;
72904;SDS011;61048;52.162;4.516;2023-05-10T08:08:38;2.67;;;1.35;;
72904;SDS011;61048;52.162;4.516;2023-05-10T08:11:05;3.60;;;1.52;;
72904;SDS011;61048;52.162;4.516;2023-05-10T08:13:32;2.65;;;1.77;;
72904;SDS011;61048;52.162;4.516;2023-05-10T08:16:00;2.78;;;1.23;;
72904;SDS011;61048;52.162;4.516;2023-05-10T08:18:27;3.03;;;1.25;;
72904;SDS011;61048;52.162;4.516;2023-05-10T08:20:54;2.28;;;1.45;;
72904;SDS011;61048;52.162;4.516;2023-05-10T08:23:21;2.45;;;1.35;;
72904;SDS011;61048;52.162;4.516;2023-05-10T08:25:50;2.33;;;1.10;;
72904;SDS011;61048;52.162;4.516;2023-05-10T08:28:17;1.33;;;0.60;;
72904;SDS011;61048;52.162;4.516;2023-05-10T08:30:44;3.20;;;1.20;;
72904;SDS011;61048;52.162;4.516;2023-05-10T08:33:11;3.15;;;1.60;;
72904;SDS011;61048;52.162;4.516;2023-05-10T08:35:38;2.88;;;1.23;;
72904;SDS011;61048;52.162;4.516;2023-05-10T08:38:06;2.67;;;1.17;;
72904;SDS011;61048;52.162;4.516;2023-05-10T08:40:33;1.92;;;1.23;;
72904;SDS011;61048;52.162;4.516;2023-05-10T08:43:04;2.08;;;1.10;;
72904;SDS011;61048;52.162;4.516;2023-05-10T08:45:32;2.20;;;0.98;;
72904;SDS011;61048;52.162;4.516;2023-05-10T08:48:00;2.25;;;1.27;;
72904;SDS011;61048;52.162;4.516;2023-05-10T08:50:28;1.70;;;1.10;;
72904;SDS011;61048;52.162;4.516;2023-05-10T08:52:57;1.70;;;1.10;;
72904;SDS011;61048;52.162;4.516;2023-05-10T08:55:25;1.77;;;1.15;;
72904;SDS011;61048;52.162;4.516;2023-05-10T08:57:53;2.17;;;1.15;;
72904;SDS011;61048;52.162;4.516;2023-05-10T09:00:21;2.20;;;1.00;;
72904;SDS011;61048;52.162;4.516;2023-05-10T09:02:49;2.17;;;0.70;;
72904;SDS011;61048;52.162;4.516;2023-05-10T09:05:17;1.45;;;0.77;;
72904;SDS011;61048;52.162;4.516;2023-05-10T09:07:44;1.88;;;1.05;;
72904;SDS011;61048;52.162;4.516;2023-05-10T09:10:11;1.52;;;0.82;;
72904;SDS011;61048;52.162;4.516;2023-05-10T09:12:40;1.73;;;0.90;;
72904;SDS011;61048;52.162;4.516;2023-05-10T09:15:09;1.90;;;1.20;;
72904;SDS011;61048;52.162;4.516;2023-05-10T09:17:38;2.08;;;1.25;;
72904;SDS011;61048;52.162;4.516;2023-05-10T09:20:05;1.67;;;0.95;;
72904;SDS011;61048;52.162;4.516;2023-05-10T09:22:33;1.60;;;1.45;;
72904;SDS011;61048;52.162;4.516;2023-05-10T09:25:04;2.85;;;1.23;;
72904;SDS011;61048;52.162;4.516;2023-05-10T09:27:31;1.67;;;0.57;;
72904;SDS011;61048;52.162;4.516;2023-05-10T09:29:58;1.50;;;0.90;;
72904;SDS011;61048;52.162;4.516;2023-05-10T09:32:36;1.92;;;0.98;;
72904;SDS011;61048;52.162;4.516;2023-05-10T09:35:09;1.50;;;0.80;;
72904;SDS011;61048;52.162;4.516;2023-05-10T09:37:36;1.85;;;1.10;;
72904;SDS011;61048;52.162;4.516;2023-05-10T09:40:06;1.90;;;1.10;;
72904;SDS011;61048;52.162;4.516;2023-05-10T09:42:34;2.38;;;1.35;;
72904;SDS011;61048;52.162;4.516;2023-05-10T09:45:02;2.00;;;1.33;;
72904;SDS011;61048;52.162;4.516;2023-05-10T09:47:31;2.13;;;1.20;;
72904;SDS011;61048;52.162;4.516;2023-05-10T09:49:58;2.20;;;0.90;;
72904;SDS011;61048;52.162;4.516;2023-05-10T09:52:30;3.63;;;1.55;;
72904;SDS011;61048;52.162;4.516;2023-05-10T09:54:57;2.55;;;1.42;;
72904;SDS011;61048;52.162;4.516;2023-05-10T09:57:24;3.17;;;2.28;;
72904;SDS011;61048;52.162;4.516;2023-05-10T09:59:52;2.10;;;1.30;;
72904;SDS011;61048;52.162;4.516;2023-05-10T10:02:20;2.42;;;1.45;;
72904;SDS011;61048;52.162;4.516;2023-05-10T10:04:49;1.98;;;1.17;;
72904;SDS011;61048;52.162;4.516;2023-05-10T10:07:17;3.08;;;1.92;;
72904;SDS011;61048;52.162;4.516;2023-05-10T10:09:50;2.78;;;1.25;;
72904;SDS011;61048;52.162;4.516;2023-05-10T10:12:18;2.20;;;1.20;;
72904;SDS011;61048;52.162;4.516;2023-05-10T10:14:45;5.07;;;1.92;;
72904;SDS011;61048;52.162;4.516;2023-05-10T10:17:14;4.18;;;2.30;;
72904;SDS011;61048;52.162;4.516;2023-05-10T10:19:42;2.90;;;1.92;;
72904;SDS011;61048;52.162;4.516;2023-05-10T10:22:09;3.47;;;1.80;;
72904;SDS011;61048;52.162;4.516;2023-05-10T10:24:37;4.63;;;1.75;;
72904;SDS011;61048;52.162;4.516;2023-05-10T10:27:11;3.50;;;2.03;;
72904;SDS011;61048;52.162;4.516;2023-05-10T10:29:43;4.40;;;2.08;;
72904;SDS011;61048;52.162;4.516;2023-05-10T10:32:19;4.18;;;1.77;;
72904;SDS011;61048;52.162;4.516;2023-05-10T10:34:48;3.55;;;1.48;;
72904;SDS011;61048;52.162;4.516;2023-05-10T10:37:16;4.85;;;3.10;;
72904;SDS011;61048;52.162;4.516;2023-05-10T10:39:43;4.32;;;2.58;;
72904;SDS011;61048;52.162;4.516;2023-05-10T10:42:11;4.40;;;2.20;;
72904;SDS011;61048;52.162;4.516;2023-05-10T10:44:38;6.30;;;1.98;;
72904;SDS011;61048;52.162;4.516;2023-05-10T10:47:22;3.80;;;1.80;;
72904;SDS011;61048;52.162;4.516;2023-05-10T10:50:01;5.88;;;2.15;;
72904;SDS011;61048;52.162;4.516;2023-05-10T10:52:30;5.57;;;1.73;;
72904;SDS011;61048;52.162;4.516;2023-05-10T10:54:59;8.30;;;2.35;;
72904;SDS011;61048;52.162;4.516;2023-05-10T10:57:30;6.70;;;2.60;;
72904;SDS011;61048;52.162;4.516;2023-05-10T11:02:44;5.50;;;2.38;;
72904;SDS011;61048;52.162;4.516;2023-05-10T11:05:35;5.43;;;2.95;;
72904;SDS011;61048;52.162;4.516;2023-05-10T11:08:09;6.75;;;2.72;;
72904;SDS011;61048;52.162;4.516;2023-05-10T11:10:37;6.60;;;3.22;;
72904;SDS011;61048;52.162;4.516;2023-05-10T11:13:09;6.03;;;3.15;;
72904;SDS011;61048;52.162;4.516;2023-05-10T11:15:37;6.18;;;2.30;;
72904;SDS011;61048;52.162;4.516;2023-05-10T11:18:17;7.18;;;2.30;;
72904;SDS011;61048;52.162;4.516;2023-05-10T11:20:45;4.35;;;2.20;;
72904;SDS011;61048;52.162;4.516;2023-05-10T11:23:16;6.38;;;2.17;;
72904;SDS011;61048;52.162;4.516;2023-05-10T11:25:45;5.53;;;2.80;;
72904;SDS011;61048;52.162;4.516;2023-05-10T11:28:14;6.88;;;3.38;;
72904;SDS011;61048;52.162;4.516;2023-05-10T11:30:42;7.00;;;3.60;;
72904;SDS011;61048;52.162;4.516;2023-05-10T11:33:11;5.22;;;2.03;;
72904;SDS011;61048;52.162;4.516;2023-05-10T11:35:41;5.05;;;2.00;;
72904;SDS011;61048;52.162;4.516;2023-05-10T11:38:08;5.15;;;2.05;;
72904;SDS011;61048;52.162;4.516;2023-05-10T11:40:36;5.40;;;1.80;;
72904;SDS011;61048;52.162;4.516;2023-05-10T11:43:03;3.65;;;1.60;;
72904;SDS011;61048;52.162;4.516;2023-05-10T11:45:33;4.38;;;1.63;;
72904;SDS011;61048;52.162;4.516;2023-05-10T11:48:00;3.47;;;2.05;;
72904;SDS011;61048;52.162;4.516;2023-05-10T11:50:30;3.63;;;1.55;;
72904;SDS011;61048;52.162;4.516;2023-05-10T11:52:57;4.15;;;1.30;;
72904;SDS011;61048;52.162;4.516;2023-05-10T11:55:27;5.63;;;1.70;;
72904;SDS011;61048;52.162;4.516;2023-05-10T11:57:59;5.30;;;1.58;;
72904;SDS011;61048;52.162;4.516;2023-05-10T12:00:26;4.78;;;1.80;;
72904;SDS011;61048;52.162;4.516;2023-05-10T12:02:55;3.58;;;1.48;;
72904;SDS011;61048;52.162;4.516;2023-05-10T12:05:22;5.57;;;2.22;;
72904;SDS011;61048;52.162;4.516;2023-05-10T12:07:49;3.35;;;1.80;;
72904;SDS011;61048;52.162;4.516;2023-05-10T12:10:17;4.88;;;2.60;;
72904;SDS011;61048;52.162;4.516;2023-05-10T12:12:51;4.57;;;1.95;;
72904;SDS011;61048;52.162;4.516;2023-05-10T12:15:19;3.38;;;2.17;;
72904;SDS011;61048;52.162;4.516;2023-05-10T12:17:47;2.83;;;1.17;;
72904;SDS011;61048;52.162;4.516;2023-05-10T12:20:17;4.22;;;1.60;;
72904;SDS011;61048;52.162;4.516;2023-05-10T12:22:45;3.47;;;1.63;;
72904;SDS011;61048;52.162;4.516;2023-05-10T12:25:12;3.17;;;1.20;;
72904;SDS011;61048;52.162;4.516;2023-05-10T12:27:39;3.22;;;1.20;;
72904;SDS011;61048;52.162;4.516;2023-05-10T12:30:06;3.45;;;1.98;;
72904;SDS011;61048;52.162;4.516;2023-05-10T12:32:37;3.35;;;1.33;;
72904;SDS011;61048;52.162;4.516;2023-05-10T12:35:05;4.10;;;2.00;;
72904;SDS011;61048;52.162;4.516;2023-05-10T12:37:33;3.90;;;1.85;;
72904;SDS011;61048;52.162;4.516;2023-05-10T12:40:05;4.68;;;1.83;;
72904;SDS011;61048;52.162;4.516;2023-05-10T12:42:33;3.15;;;1.33;;
72904;SDS011;61048;52.162;4.516;2023-05-10T12:45:00;3.53;;;1.60;;
72904;SDS011;61048;52.162;4.516;2023-05-10T12:47:28;3.78;;;2.00;;
72904;SDS011;61048;52.162;4.516;2023-05-10T12:49:55;5.45;;;2.03;;
72904;SDS011;61048;52.162;4.516;2023-05-10T12:52:22;4.72;;;1.50;;
72904;SDS011;61048;52.162;4.516;2023-05-10T12:54:51;5.45;;;1.63;;
72904;SDS011;61048;52.162;4.516;2023-05-10T12:57:20;4.65;;;1.70;;
72904;SDS011;61048;52.162;4.516;2023-05-10T12:59:47;3.88;;;1.08;;
72904;SDS011;61048;52.162;4.516;2023-05-10T13:02:14;4.53;;;2.13;;
72904;SDS011;61048;52.162;4.516;2023-05-10T13:04:43;4.82;;;2.70;;
72904;SDS011;61048;52.162;4.516;2023-05-10T13:07:11;4.32;;;2.30;;
72904;SDS011;61048;52.162;4.516;2023-05-10T13:09:39;4.18;;;1.95;;
72904;SDS011;61048;52.162;4.516;2023-05-10T13:12:07;5.32;;;2.28;;
72904;SDS011;61048;52.162;4.516;2023-05-10T13:14:34;5.45;;;2.80;;
72904;SDS011;61048;52.162;4.516;2023-05-10T13:17:02;4.35;;;2.50;;
72904;SDS011;61048;52.162;4.516;2023-05-10T13:19:29;4.72;;;2.28;;
72904;SDS011;61048;52.162;4.516;2023-05-10T13:21:56;5.72;;;2.10;;
72904;SDS011;61048;52.162;4.516;2023-05-10T13:24:23;5.18;;;2.05;;
72904;SDS011;61048;52.162;4.516;2023-05-10T13:26:50;4.57;;;1.90;;
72904;SDS011;61048;52.162;4.516;2023-05-10T13:29:19;5.88;;;3.22;;
72904;SDS011;61048;52.162;4.516;2023-05-10T13:31:47;5.03;;;2.17;;
72904;SDS011;61048;52.162;4.516;2023-05-10T13:34:14;5.18;;;2.03;;
72904;SDS011;61048;52.162;4.516;2023-05-10T13:36:45;4.63;;;2.33;;
72904;SDS011;61048;52.162;4.516;2023-05-10T13:39:12;5.18;;;2.25;;
72904;SDS011;61048;52.162;4.516;2023-05-10T13:41:39;5.80;;;2.80;;
72904;SDS011;61048;52.162;4.516;2023-05-10T13:44:06;6.18;;;1.95;;
72904;SDS011;61048;52.162;4.516;2023-05-10T13:46:35;5.07;;;2.25;;
72904;SDS011;61048;52.162;4.516;2023-05-10T13:49:02;5.82;;;2.03;;
72904;SDS011;61048;52.162;4.516;2023-05-10T13:51:30;3.95;;;1.85;;
72904;SDS011;61048;52.162;4.516;2023-05-10T13:53:57;4.72;;;2.00;;
72904;SDS011;61048;52.162;4.516;2023-05-10T13:56:24;4.10;;;1.70;;
72904;SDS011;61048;52.162;4.516;2023-05-10T13:58:52;4.18;;;2.13;;
72904;SDS011;61048;52.162;4.516;2023-05-10T14:01:19;3.53;;;1.70;;
72904;SDS011;61048;52.162;4.516;2023-05-10T14:03:47;6.05;;;2.28;;
72904;SDS011;61048;52.162;4.516;2023-05-10T14:06:14;6.95;;;2.00;;
72904;SDS011;61048;52.162;4.516;2023-05-10T14:08:42;6.00;;;1.65;;
72904;SDS011;61048;52.162;4.516;2023-05-10T14:11:09;4.40;;;1.67;;
72904;SDS011;61048;52.162;4.516;2023-05-10T14:13:36;4.32;;;2.22;;
72904;SDS011;61048;52.162;4.516;2023-05-10T14:16:04;5.25;;;1.80;;
72904;SDS011;61048;52.162;4.516;2023-05-10T14:18:31;4.78;;;1.52;;
72904;SDS011;61048;52.162;4.516;2023-05-10T14:21:00;3.90;;;2.05;;
72904;SDS011;61048;52.162;4.516;2023-05-10T14:23:27;4.75;;;2.70;;
72904;SDS011;61048;52.162;4.516;2023-05-10T14:25:54;5.78;;;2.10;;
72904;SDS011;61048;52.162;4.516;2023-05-10T14:28:21;2.47;;;1.73;;
72904;SDS011;61048;52.162;4.516;2023-05-10T14:30:49;4.05;;;1.60;;
72904;SDS011;61048;52.162;4.516;2023-05-10T14:33:16;3.72;;;1.67;;
72904;SDS011;61048;52.162;4.516;2023-05-10T14:35:44;4.68;;;1.98;;
72904;SDS011;61048;52.162;4.516;2023-05-10T14:38:13;3.67;;;1.70;;
72904;SDS011;61048;52.162;4.516;2023-05-10T14:40:40;5.35;;;1.80;;
72904;SDS011;61048;52.162;4.516;2023-05-10T14:43:07;5.18;;;2.50;;
72904;SDS011;61048;52.162;4.516;2023-05-10T14:45:34;4.32;;;1.50;;
72904;SDS011;61048;52.162;4.516;2023-05-10T14:48:02;3.88;;;2.30;;
72904;SDS011;61048;52.162;4.516;2023-05-10T14:50:29;4.50;;;2.28;;
72904;SDS011;61048;52.162;4.516;2023-05-10T14:52:56;4.35;;;1.98;;
72904;SDS011;61048;52.162;4.516;2023-05-10T14:55:25;3.78;;;1.98;;
72904;SDS011;61048;52.162;4.516;2023-05-10T14:57:52;3.47;;;1.50;;
72904;SDS011;61048;52.162;4.516;2023-05-10T15:00:21;3.33;;;1.33;;